Time;durP1;ratioP1;P1;durP2;ratioP2;P2;SDS_P1;SDS_P2;PMS_P1;PMS_P2;Temp;Humidity;BMP_temperature;BMP_pressure;BME280_temperature;BME280_humidity;BME280_pressure;Samples;Min_cycle;Max_cycle;Signal;HPM_P1;HPM_P2
2023/03/16 00:00:42;;;;;;;8.73;4.63;;;;;;;;;;5081844;28;20220;-89
2023/03/16 00:03:09;;;;;;;9.73;5.70;;;;;;;;;;5088243;28;20319;-88
2023/03/16 00:05:36;;;;;;;5.13;4.63;;;;;;;;;;5089280;28;20211;-89
2023/03/16 00:08:03;;;;;;;5.73;4.37;;;;;;;;;;5094993;28;20236;-88
2023/03/16 00:10:30;;;;;;;7.10;4.77;;;;;;;;;;5094309;28;20212;-89
2023/03/16 00:12:57;;;;;;;5.27;4.70;;;;;;;;;;5082233;28;20216;-89
2023/03/16 00:15:25;;;;;;;5.17;4.23;;;;;;;;;;5080617;28;20208;-89
2023/03/16 00:17:52;;;;;;;5.17;4.20;;;;;;;;;;5082946;28;20221;-89
2023/03/16 00:20:19;;;;;;;7.27;4.90;;;;;;;;;;5093652;28;20208;-89
2023/03/16 00:22:46;;;;;;;9.23;4.70;;;;;;;;;;5074553;28;20254;-92
2023/03/16 00:25:14;;;;;;;9.87;7.67;;;;;;;;;;5088266;28;20216;-88
2023/03/16 00:27:41;;;;;;;6.63;5.60;;;;;;;;;;5074440;28;20637;-89
2023/03/16 00:30:10;;;;;;;5.73;5.23;;;;;;;;;;5074425;28;20262;-89
2023/03/16 00:32:38;;;;;;;6.67;4.63;;;;;;;;;;5083150;28;20209;-88
2023/03/16 00:35:06;;;;;;;5.37;3.90;;;;;;;;;;5094509;28;20281;-89
2023/03/16 00:37:33;;;;;;;5.20;4.57;;;;;;;;;;5094724;28;20216;-89
2023/03/16 00:40:00;;;;;;;5.13;4.63;;;;;;;;;;5081159;28;20215;-88
2023/03/16 00:42:29;;;;;;;7.00;4.67;;;;;;;;;;5084653;28;20258;-89
2023/03/16 00:44:56;;;;;;;8.97;4.80;;;;;;;;;;5090329;28;20209;-89
2023/03/16 00:47:24;;;;;;;4.87;4.17;;;;;;;;;;5083172;28;20219;-89
2023/03/16 00:49:52;;;;;;;5.23;4.57;;;;;;;;;;5078117;28;20207;-89
2023/03/16 00:52:19;;;;;;;5.90;4.63;;;;;;;;;;5094212;28;20748;-89
2023/03/16 00:54:47;;;;;;;7.67;4.80;;;;;;;;;;5076153;28;20236;-89
2023/03/16 00:57:17;;;;;;;6.37;5.27;;;;;;;;;;5074277;28;20208;-88
2023/03/16 00:59:44;;;;;;;5.63;4.77;;;;;;;;;;5079590;28;20211;-88
2023/03/16 01:02:11;;;;;;;5.73;4.90;;;;;;;;;;5093571;28;20779;-88
2023/03/16 01:04:40;;;;;;;5.10;4.70;;;;;;;;;;5074622;28;20211;-89
2023/03/16 01:07:09;;;;;;;5.10;4.00;;;;;;;;;;5073966;28;20196;-88
2023/03/16 01:09:36;;;;;;;5.93;4.93;;;;;;;;;;5067097;28;20236;-88
2023/03/16 01:12:05;;;;;;;9.57;4.60;;;;;;;;;;5093466;28;20212;-89
2023/03/16 01:14:33;;;;;;;7.03;4.97;;;;;;;;;;5073431;28;20292;-88
2023/03/16 01:17:00;;;;;;;6.63;5.30;;;;;;;;;;5074114;28;20240;-89
2023/03/16 01:19:27;;;;;;;5.50;4.77;;;;;;;;;;5093471;28;20272;-89
2023/03/16 01:21:54;;;;;;;6.13;4.87;;;;;;;;;;5079819;28;20611;-88
2023/03/16 01:24:23;;;;;;;7.57;5.57;;;;;;;;;;5080392;28;20667;-88
2023/03/16 01:26:51;;;;;;;5.17;4.67;;;;;;;;;;5079954;28;20193;-90
2023/03/16 01:29:18;;;;;;;6.60;4.67;;;;;;;;;;5093175;28;20200;-88
2023/03/16 01:31:45;;;;;;;7.13;5.37;;;;;;;;;;5079503;28;20201;-88
2023/03/16 01:34:15;;;;;;;5.67;5.07;;;;;;;;;;5085098;28;20209;-88
2023/03/16 01:36:43;;;;;;;11.10;5.00;;;;;;;;;;5074916;28;20228;-88
2023/03/16 01:39:10;;;;;;;8.00;5.13;;;;;;;;;;5084175;28;20201;-88
2023/03/16 01:41:38;;;;;;;5.50;4.63;;;;;;;;;;5072890;28;20295;-88
2023/03/16 01:44:05;;;;;;;5.47;4.87;;;;;;;;;;5072482;28;20706;-88
2023/03/16 01:46:32;;;;;;;9.23;5.17;;;;;;;;;;5075834;28;20253;-88
2023/03/16 01:49:04;;;;;;;6.63;5.77;;;;;;;;;;5082991;28;20205;-88
2023/03/16 01:51:36;;;;;;;8.23;5.47;;;;;;;;;;5072883;28;20209;-89
2023/03/16 01:54:06;;;;;;;5.03;4.40;;;;;;;;;;5084501;28;20210;-88
2023/03/16 01:56:36;;;;;;;6.80;4.83;;;;;;;;;;5072876;28;20223;-88
2023/03/16 01:59:08;;;;;;;5.63;4.97;;;;;;;;;;5072773;28;20205;-88
2023/03/16 02:01:35;;;;;;;6.83;5.60;;;;;;;;;;5059205;28;20204;-88
2023/03/16 02:04:14;;;;;;;7.07;5.60;;;;;;;;;;5086138;28;20224;-89
2023/03/16 02:06:40;;;;;;;6.57;5.23;;;;;;;;;;5072354;28;20208;-88
2023/03/16 02:09:08;;;;;;;7.23;5.17;;;;;;;;;;5086004;28;20690;-88
2023/03/16 02:11:35;;;;;;;6.30;5.30;;;;;;;;;;5072251;28;20200;-89
2023/03/16 02:14:09;;;;;;;8.83;6.43;;;;;;;;;;5072320;28;20205;-88
2023/03/16 02:16:36;;;;;;;6.33;5.10;;;;;;;;;;5072246;28;20216;-88
2023/03/16 02:19:04;;;;;;;7.07;5.70;;;;;;;;;;5088750;28;20208;-88
2023/03/16 02:21:35;;;;;;;6.10;5.17;;;;;;;;;;5080466;28;20205;-88
2023/03/16 02:24:02;;;;;;;6.87;6.00;;;;;;;;;;5085056;28;20599;-88
2023/03/16 02:26:33;;;;;;;7.80;5.70;;;;;;;;;;5071749;28;20200;-88
2023/03/16 02:29:12;;;;;;;7.60;5.67;;;;;;;;;;5090957;28;20208;-88
2023/03/16 02:31:40;;;;;;;9.03;6.33;;;;;;;;;;5091932;28;20200;-88
2023/03/16 02:34:08;;;;;;;6.33;5.73;;;;;;;;;;5092060;28;20208;-89
2023/03/16 02:36:35;;;;;;;7.23;6.13;;;;;;;;;;5090721;28;20204;-88
2023/03/16 02:39:02;;;;;;;6.43;5.40;;;;;;;;;;5072071;28;20223;-88
2023/03/16 02:41:31;;;;;;;7.80;6.23;;;;;;;;;;5073376;28;20205;-88
2023/03/16 02:44:02;;;;;;;7.10;6.40;;;;;;;;;;5092122;28;20224;-89
2023/03/16 02:46:34;;;;;;;7.13;5.83;;;;;;;;;;5075986;28;20220;-88
2023/03/16 02:49:05;;;;;;;8.00;6.70;;;;;;;;;;5082179;28;20204;-89
2023/03/16 02:51:32;;;;;;;7.77;5.90;;;;;;;;;;5087692;28;20215;-88
2023/03/16 02:53:59;;;;;;;6.70;6.10;;;;;;;;;;5072037;28;20205;-88
2023/03/16 02:56:26;;;;;;;6.63;5.90;;;;;;;;;;5071784;28;20213;-88
2023/03/16 02:58:52;;;;;;;8.90;5.43;;;;;;;;;;5072016;28;20345;-88
2023/03/16 03:01:19;;;;;;;8.10;5.60;;;;;;;;;;5089967;28;20204;-87
2023/03/16 03:03:46;;;;;;;9.23;6.00;;;;;;;;;;5080084;28;20224;-87
2023/03/16 03:06:14;;;;;;;6.53;5.50;;;;;;;;;;5084680;28;20209;-88
2023/03/16 03:08:42;;;;;;;6.50;5.77;;;;;;;;;;5072178;28;20673;-87
2023/03/16 03:11:09;;;;;;;6.70;5.70;;;;;;;;;;5088775;28;20262;-87
2023/03/16 03:13:37;;;;;;;8.27;5.60;;;;;;;;;;5087899;28;20212;-87
2023/03/16 03:16:04;;;;;;;5.77;5.10;;;;;;;;;;5095588;28;20207;-87
2023/03/16 03:18:30;;;;;;;6.67;5.60;;;;;;;;;;5082488;28;20216;-87
2023/03/16 03:20:57;;;;;;;7.07;5.67;;;;;;;;;;5075235;28;20570;-88
2023/03/16 03:23:25;;;;;;;9.17;5.93;;;;;;;;;;5075504;28;20582;-87
2023/03/16 03:25:52;;;;;;;6.57;5.60;;;;;;;;;;5095236;28;20748;-87
2023/03/16 03:28:21;;;;;;;5.83;5.20;;;;;;;;;;5081466;28;20262;-87
2023/03/16 03:30:47;;;;;;;8.13;5.43;;;;;;;;;;5082981;28;20204;-87
2023/03/16 03:33:14;;;;;;;7.63;6.13;;;;;;;;;;5095359;28;20277;-87
2023/03/16 03:35:41;;;;;;;7.83;5.83;;;;;;;;;;5094966;28;20203;-87
2023/03/16 03:38:08;;;;;;;7.47;5.60;;;;;;;;;;5080571;28;20237;-87
2023/03/16 03:40:36;;;;;;;10.13;6.17;;;;;;;;;;5079940;28;20208;-87
2023/03/16 03:43:05;;;;;;;8.53;7.03;;;;;;;;;;5087739;28;20232;-88
2023/03/16 03:45:31;;;;;;;8.90;6.37;;;;;;;;;;5084886;28;20682;-88
2023/03/16 03:47:58;;;;;;;7.43;6.60;;;;;;;;;;5080944;28;20213;-88
2023/03/16 03:50:25;;;;;;;7.50;6.33;;;;;;;;;;5076268;28;20200;-93
2023/03/16 03:52:52;;;;;;;8.20;6.27;;;;;;;;;;5090728;28;20266;-88
2023/03/16 03:55:18;;;;;;;10.20;8.70;;;;;;;;;;5074548;28;20258;-87
2023/03/16 03:57:47;;;;;;;10.43;7.97;;;;;;;;;;5074316;28;20274;-88
2023/03/16 04:00:14;;;;;;;8.90;6.93;;;;;;;;;;5086175;28;20635;-88
2023/03/16 04:02:41;;;;;;;8.30;6.63;;;;;;;;;;5078603;28;20210;-83
2023/03/16 04:05:09;;;;;;;9.77;6.97;;;;;;;;;;5083830;28;20208;-82
2023/03/16 04:07:36;;;;;;;8.13;6.10;;;;;;;;;;5079906;28;20205;-81
2023/03/16 04:10:03;;;;;;;9.77;7.90;;;;;;;;;;5094262;28;20260;-80
2023/03/16 04:12:30;;;;;;;11.27;9.33;;;;;;;;;;5076418;28;20279;-81
2023/03/16 04:14:58;;;;;;;7.87;7.00;;;;;;;;;;5073575;28;20251;-81
2023/03/16 04:17:24;;;;;;;7.30;6.37;;;;;;;;;;5077215;28;20254;-81
2023/03/16 04:19:51;;;;;;;9.47;6.93;;;;;;;;;;5082989;28;20310;-80
2023/03/16 04:22:18;;;;;;;7.33;6.53;;;;;;;;;;5076704;28;20200;-80
2023/03/16 04:24:45;;;;;;;8.90;6.27;;;;;;;;;;5082925;28;20665;-81
2023/03/16 04:27:12;;;;;;;6.83;6.13;;;;;;;;;;5073008;28;20251;-81
2023/03/16 04:29:39;;;;;;;7.17;6.20;;;;;;;;;;5073476;28;20629;-81
2023/03/16 04:32:07;;;;;;;7.53;5.80;;;;;;;;;;5072672;28;20193;-87
2023/03/16 04:34:40;;;;;;;7.30;5.83;;;;;;;;;;5074024;28;20612;-87
2023/03/16 04:37:07;;;;;;;7.30;6.60;;;;;;;;;;5073454;28;20209;-86
2023/03/16 04:39:34;;;;;;;7.33;6.63;;;;;;;;;;5073642;28;20209;-87
2023/03/16 04:42:00;;;;;;;7.70;6.57;;;;;;;;;;5087544;28;20197;-87
2023/03/16 04:44:27;;;;;;;9.63;7.20;;;;;;;;;;5074480;28;20290;-87
2023/03/16 04:46:54;;;;;;;10.37;7.17;;;;;;;;;;5079420;28;20208;-87
2023/03/16 04:49:22;;;;;;;11.20;7.10;;;;;;;;;;5081940;28;20204;-86
2023/03/16 04:52:27;;;;;;;8.40;7.27;;;;;;;;;;5074099;28;20216;-86
2023/03/16 04:54:55;;;;;;;8.50;7.60;;;;;;;;;;5078162;28;20607;-81
2023/03/16 04:57:22;;;;;;;7.80;6.73;;;;;;;;;;5081569;28;20197;-90
2023/03/16 04:59:49;;;;;;;8.00;6.97;;;;;;;;;;5091700;28;20686;-90
2023/03/16 05:02:18;;;;;;;9.83;7.30;;;;;;;;;;5081693;27;20591;-90
2023/03/16 05:04:46;;;;;;;9.50;8.70;;;;;;;;;;5085763;28;20230;-90
2023/03/16 05:07:14;;;;;;;9.80;8.57;;;;;;;;;;5075798;28;20289;-90
2023/03/16 05:09:41;;;;;;;8.30;6.73;;;;;;;;;;5074125;28;20290;-90
2023/03/16 05:12:09;;;;;;;11.87;7.90;;;;;;;;;;5074398;28;20208;-87
2023/03/16 05:14:36;;;;;;;11.63;8.43;;;;;;;;;;5083139;28;20204;-91
2023/03/16 05:17:03;;;;;;;10.63;7.93;;;;;;;;;;5081427;28;20209;-92
2023/03/16 05:19:30;;;;;;;8.97;7.87;;;;;;;;;;5085388;28;20287;-90
2023/03/16 05:21:58;;;;;;;9.50;8.53;;;;;;;;;;5078143;28;20338;-94
2023/03/16 05:24:25;;;;;;;11.57;9.60;;;;;;;;;;5079520;28;20231;-92
2023/03/16 05:26:52;;;;;;;11.87;8.40;;;;;;;;;;5084450;28;20664;-92
2023/03/16 05:29:19;;;;;;;10.07;8.57;;;;;;;;;;5074012;28;20212;-92
2023/03/16 05:31:46;;;;;;;8.33;7.43;;;;;;;;;;5072932;28;20330;-94
2023/03/16 05:34:13;;;;;;;13.63;8.37;;;;;;;;;;5087442;28;20299;-92
2023/03/16 05:36:40;;;;;;;11.40;7.53;;;;;;;;;;5073493;28;20212;-94
2023/03/16 05:39:08;;;;;;;10.27;8.07;;;;;;;;;;5078742;28;20677;-93
2023/03/16 05:41:35;;;;;;;12.60;7.00;;;;;;;;;;5093350;28;20261;-93
2023/03/16 05:44:03;;;;;;;7.23;5.93;;;;;;;;;;5093612;28;20281;-93
2023/03/16 05:46:29;;;;;;;7.47;5.73;;;;;;;;;;5080881;28;20561;-93
2023/03/16 05:48:56;;;;;;;7.23;6.47;;;;;;;;;;5093295;28;20262;-93
2023/03/16 05:51:25;;;;;;;12.20;6.93;;;;;;;;;;5080193;28;20680;-93
2023/03/16 05:53:55;;;;;;;10.60;6.57;;;;;;;;;;5053378;28;20202;-92
2023/03/16 05:56:24;;;;;;;10.20;7.47;;;;;;;;;;5067866;28;20349;-93
2023/03/16 05:58:51;;;;;;;10.70;7.80;;;;;;;;;;5081179;28;20295;-93
2023/03/16 06:01:19;;;;;;;8.37;7.37;;;;;;;;;;5078416;28;20227;-93
2023/03/16 06:03:48;;;;;;;14.57;10.03;;;;;;;;;;5073649;28;20224;-93
2023/03/16 06:06:15;;;;;;;16.90;7.73;;;;;;;;;;5073026;28;20215;-93
2023/03/16 06:08:42;;;;;;;8.37;6.60;;;;;;;;;;5072985;28;20638;-94
2023/03/16 06:11:10;;;;;;;9.37;6.40;;;;;;;;;;5073007;28;20254;-93
2023/03/16 06:13:41;;;;;;;7.07;6.37;;;;;;;;;;5085751;28;20732;-93
2023/03/16 06:16:10;;;;;;;22.97;17.70;;;;;;;;;;5079458;28;20204;-93
2023/03/16 06:18:38;;;;;;;12.07;10.87;;;;;;;;;;5079504;28;20731;-93
2023/03/16 06:21:05;;;;;;;10.70;8.00;;;;;;;;;;5092865;28;20208;-93
2023/03/16 06:23:32;;;;;;;6.37;5.77;;;;;;;;;;5078098;28;20258;-94
2023/03/16 06:25:59;;;;;;;9.47;5.97;;;;;;;;;;5072796;28;20204;-93
2023/03/16 06:28:27;;;;;;;13.23;7.23;;;;;;;;;;5087421;28;20218;-93
2023/03/16 06:30:55;;;;;;;8.60;7.70;;;;;;;;;;5084075;28;20205;-94
2023/03/16 06:33:22;;;;;;;6.77;5.13;;;;;;;;;;5074934;28;20205;-93
2023/03/16 06:35:50;;;;;;;9.40;5.60;;;;;;;;;;5093003;28;20261;-93
2023/03/16 06:38:17;;;;;;;5.73;5.13;;;;;;;;;;5090217;28;20674;-93
2023/03/16 06:40:43;;;;;;;5.10;4.57;;;;;;;;;;5072675;28;20278;-94
2023/03/16 06:43:10;;;;;;;4.73;4.23;;;;;;;;;;5089469;28;20273;-93
2023/03/16 06:45:37;;;;;;;6.60;4.73;;;;;;;;;;5092946;28;20231;-94
2023/03/16 06:48:08;;;;;;;7.50;5.53;;;;;;;;;;5092506;28;20211;-94
2023/03/16 06:50:35;;;;;;;6.03;4.17;;;;;;;;;;5092575;28;20208;-94
2023/03/16 06:53:02;;;;;;;7.13;4.70;;;;;;;;;;5074589;28;20672;-93
2023/03/16 06:55:29;;;;;;;4.77;4.23;;;;;;;;;;5072506;28;20210;-93
2023/03/16 06:57:56;;;;;;;16.77;9.57;;;;;;;;;;5072506;28;20630;-94
2023/03/16 07:00:24;;;;;;;8.10;6.47;;;;;;;;;;5083704;28;20227;-93
2023/03/16 07:02:51;;;;;;;4.70;4.20;;;;;;;;;;5087365;28;20197;-94
2023/03/16 07:05:19;;;;;;;38.27;18.17;;;;;;;;;;5084231;28;20223;-94
2023/03/16 07:07:46;;;;;;;6.77;5.13;;;;;;;;;;5072906;28;20204;-93
2023/03/16 07:10:16;;;;;;;5.27;4.57;;;;;;;;;;5085512;28;20268;-93
2023/03/16 07:12:43;;;;;;;11.10;6.67;;;;;;;;;;5072516;28;20284;-94
2023/03/16 07:15:10;;;;;;;34.37;19.00;;;;;;;;;;5072379;28;20636;-94
2023/03/16 07:17:37;;;;;;;7.93;5.77;;;;;;;;;;5085748;28;20307;-94
2023/03/16 07:20:09;;;;;;;5.83;5.23;;;;;;;;;;5084863;28;20261;-93
2023/03/16 07:22:37;;;;;;;10.00;7.67;;;;;;;;;;5092137;28;20201;-93
2023/03/16 07:25:05;;;;;;;7.67;6.10;;;;;;;;;;5092648;28;20719;-94
2023/03/16 07:27:32;;;;;;;18.07;11.77;;;;;;;;;;5072413;28;20216;-93
2023/03/16 07:29:59;;;;;;;13.70;9.20;;;;;;;;;;5086113;28;20667;-93
2023/03/16 07:32:26;;;;;;;19.20;14.70;;;;;;;;;;5092548;28;20216;-93
2023/03/16 07:34:53;;;;;;;8.73;7.17;;;;;;;;;;5091528;28;20741;-93
2023/03/16 07:37:20;;;;;;;7.83;6.40;;;;;;;;;;5072011;28;20231;-92
2023/03/16 07:39:48;;;;;;;6.00;5.00;;;;;;;;;;5073075;28;20251;-93
2023/03/16 07:42:15;;;;;;;6.70;5.87;;;;;;;;;;5084265;28;20684;-93
2023/03/16 07:44:42;;;;;;;8.50;5.00;;;;;;;;;;5071957;28;20256;-93
2023/03/16 07:47:10;;;;;;;4.93;4.43;;;;;;;;;;5080018;28;20201;-93
2023/03/16 07:49:37;;;;;;;5.63;4.87;;;;;;;;;;5078602;28;20213;-93
2023/03/16 07:52:04;;;;;;;6.90;5.37;;;;;;;;;;5083611;28;20212;-93
2023/03/16 07:54:30;;;;;;;6.93;5.30;;;;;;;;;;5071977;28;20209;-93
2023/03/16 07:56:59;;;;;;;15.17;9.53;;;;;;;;;;5084768;28;20261;-92
2023/03/16 07:59:26;;;;;;;9.47;6.80;;;;;;;;;;5095646;28;20204;-93
2023/03/16 08:01:52;;;;;;;6.20;5.60;;;;;;;;;;5095836;28;20208;-93
2023/03/16 08:04:21;;;;;;;10.77;6.77;;;;;;;;;;5095864;28;20588;-93
2023/03/16 08:06:47;;;;;;;9.90;5.97;;;;;;;;;;5085669;28;20700;-93
2023/03/16 08:09:14;;;;;;;6.10;5.50;;;;;;;;;;5078697;28;20231;-93
2023/03/16 08:11:41;;;;;;;6.57;5.37;;;;;;;;;;5095635;28;20209;-93
2023/03/16 08:14:11;;;;;;;5.57;5.00;;;;;;;;;;5091583;28;20236;-93
2023/03/16 08:16:37;;;;;;;7.00;5.50;;;;;;;;;;5075090;28;20208;-93
2023/03/16 08:19:04;;;;;;;7.30;6.00;;;;;;;;;;5088573;28;20200;-93
2023/03/16 08:21:31;;;;;;;5.70;5.17;;;;;;;;;;5075435;28;20743;-92
2023/03/16 08:23:58;;;;;;;6.13;5.00;;;;;;;;;;5079639;28;20231;-93
2023/03/16 08:26:26;;;;;;;6.93;5.60;;;;;;;;;;5083519;28;20274;-93
2023/03/16 08:28:53;;;;;;;7.20;6.50;;;;;;;;;;5080003;28;20208;-93
2023/03/16 08:31:22;;;;;;;8.83;7.37;;;;;;;;;;5082722;28;20205;-93
2023/03/16 08:33:49;;;;;;;10.73;8.20;;;;;;;;;;5080806;28;20212;-93
2023/03/16 08:36:17;;;;;;;6.23;5.40;;;;;;;;;;5094814;28;20208;-93
2023/03/16 08:38:45;;;;;;;5.93;5.10;;;;;;;;;;5074839;28;20220;-94
2023/03/16 08:41:15;;;;;;;6.17;5.13;;;;;;;;;;5087879;28;20212;-93
2023/03/16 08:43:42;;;;;;;6.03;5.43;;;;;;;;;;5082190;28;20294;-94
2023/03/16 08:46:08;;;;;;;7.37;6.57;;;;;;;;;;5080772;28;20236;-93
2023/03/16 08:48:39;;;;;;;8.37;5.93;;;;;;;;;;5095218;28;20285;-94
2023/03/16 08:51:06;;;;;;;6.57;5.87;;;;;;;;;;5093468;28;20208;-93
2023/03/16 08:53:33;;;;;;;6.53;5.57;;;;;;;;;;5082727;28;20207;-92
2023/03/16 08:56:05;;;;;;;5.93;5.27;;;;;;;;;;5078739;28;20668;-92
2023/03/16 08:58:33;;;;;;;5.87;5.27;;;;;;;;;;5074741;28;20235;-93
2023/03/16 09:01:00;;;;;;;7.07;6.07;;;;;;;;;;5087412;28;20213;-93
2023/03/16 09:03:27;;;;;;;6.30;5.70;;;;;;;;;;5084278;28;20204;-93
2023/03/16 09:06:01;;;;;;;7.47;5.77;;;;;;;;;;5093138;28;20772;-92
2023/03/16 09:08:28;;;;;;;33.37;18.97;;;;;;;;;;5093961;28;20315;-93
2023/03/16 09:11:00;;;;;;;365.13;120.03;;;;;;;;;;5079225;28;20746;-92
2023/03/16 09:13:27;;;;;;;186.33;76.30;;;;;;;;;;5093813;28;20205;-91
2023/03/16 09:15:54;;;;;;;161.93;81.97;;;;;;;;;;5089744;28;20266;-92
2023/03/16 09:18:22;;;;;;;46.73;29.10;;;;;;;;;;5073969;28;20295;-91
2023/03/16 09:20:49;;;;;;;20.77;15.50;;;;;;;;;;5078526;28;20207;-90
2023/03/16 09:23:18;;;;;;;11.80;9.60;;;;;;;;;;5094091;28;20209;-92
2023/03/16 09:25:45;;;;;;;7.73;6.23;;;;;;;;;;5080439;28;20285;-91
2023/03/16 09:28:12;;;;;;;8.80;7.37;;;;;;;;;;5081568;28;20209;-92
2023/03/16 09:30:39;;;;;;;5.13;4.63;;;;;;;;;;5092823;28;20265;-91
2023/03/16 09:33:06;;;;;;;6.10;5.50;;;;;;;;;;5081549;28;20219;-91
2023/03/16 09:35:33;;;;;;;8.23;6.27;;;;;;;;;;5087200;28;20303;-91
2023/03/16 09:38:00;;;;;;;6.20;4.83;;;;;;;;;;5073843;28;20751;-92
2023/03/16 09:40:29;;;;;;;7.43;6.00;;;;;;;;;;5079792;28;20208;-91
2023/03/16 09:43:11;;;;;;;5.83;5.23;;;;;;;;;;5093143;28;20204;-90
2023/03/16 09:45:41;;;;;;;4.87;4.37;;;;;;;;;;5073139;28;20274;-91
2023/03/16 09:48:09;;;;;;;5.00;4.23;;;;;;;;;;5087130;28;20751;-91
2023/03/16 09:50:38;;;;;;;5.13;4.33;;;;;;;;;;5073081;28;20632;-91
2023/03/16 09:53:11;;;;;;;5.83;5.00;;;;;;;;;;5073359;28;20213;-91
2023/03/16 09:55:39;;;;;;;4.23;3.43;;;;;;;;;;5084652;28;20204;-91
2023/03/16 09:58:12;;;;;;;4.50;3.60;;;;;;;;;;5093009;28;20204;-91
2023/03/16 10:00:44;;;;;;;3.87;3.47;;;;;;;;;;5093342;28;20303;-91
2023/03/16 10:03:20;;;;;;;4.43;3.90;;;;;;;;;;5067483;28;20200;-91
2023/03/16 10:05:48;;;;;;;4.47;4.07;;;;;;;;;;5077801;28;20228;-90
2023/03/16 10:08:17;;;;;;;3.10;2.80;;;;;;;;;;5082203;28;20236;-92
2023/03/16 10:11:05;;;;;;;6.20;5.20;;;;;;;;;;5090480;28;20217;-91
2023/03/16 10:13:37;;;;;;;3.73;3.43;;;;;;;;;;5085597;28;20287;-90
2023/03/16 10:16:09;;;;;;;4.07;3.57;;;;;;;;;;5079490;28;20200;-91
2023/03/16 10:18:39;;;;;;;4.10;3.60;;;;;;;;;;5092848;28;20302;-94
2023/03/16 10:21:13;;;;;;;3.50;3.20;;;;;;;;;;5092862;28;20253;-92
2023/03/16 10:23:40;;;;;;;5.70;5.17;;;;;;;;;;5077602;28;20213;-91
2023/03/16 10:26:13;;;;;;;2.60;2.40;;;;;;;;;;5081745;28;20319;-92
2023/03/16 10:28:41;;;;;;;6.07;5.23;;;;;;;;;;5076112;28;20217;-91
2023/03/16 10:31:09;;;;;;;4.13;3.73;;;;;;;;;;5082735;28;20215;-91
2023/03/16 10:33:37;;;;;;;4.47;3.53;;;;;;;;;;5092883;28;20204;-91
2023/03/16 10:36:06;;;;;;;2.17;2.03;;;;;;;;;;5082168;28;20209;-91
2023/03/16 10:38:41;;;;;;;2.10;1.83;;;;;;;;;;5090963;28;20204;-91
2023/03/16 10:41:21;;;;;;;3.33;3.03;;;;;;;;;;5079874;28;20215;-91
2023/03/16 10:43:50;;;;;;;1.60;1.50;;;;;;;;;;5060518;28;20197;-91
2023/03/16 10:46:17;;;;;;;2.00;1.90;;;;;;;;;;5085347;28;20300;-91
2023/03/16 10:48:52;;;;;;;1.90;1.73;;;;;;;;;;5072451;28;20303;-91
2023/03/16 10:51:20;;;;;;;1.50;1.40;;;;;;;;;;5072694;28;20204;-91
2023/03/16 10:53:47;;;;;;;3.17;2.70;;;;;;;;;;5072813;28;20300;-91
2023/03/16 10:56:25;;;;;;;1.60;1.50;;;;;;;;;;5086529;28;20207;-91
2023/03/16 10:58:52;;;;;;;1.67;1.57;;;;;;;;;;5072704;28;20204;-91
2023/03/16 11:01:21;;;;;;;2.53;2.10;;;;;;;;;;5085594;28;20254;-89
2023/03/16 11:03:50;;;;;;;1.70;1.60;;;;;;;;;;5072323;28;20193;-91
2023/03/16 11:06:21;;;;;;;2.53;2.30;;;;;;;;;;5072206;28;20335;-91
2023/03/16 11:08:48;;;;;;;2.30;2.10;;;;;;;;;;5072574;28;20282;-90
2023/03/16 11:11:18;;;;;;;1.90;1.80;;;;;;;;;;5073572;28;20208;-91
2023/03/16 11:13:48;;;;;;;2.47;2.27;;;;;;;;;;5085818;28;20710;-91
2023/03/16 11:16:23;;;;;;;3.63;2.10;;;;;;;;;;5084544;28;20209;-92
2023/03/16 11:18:53;;;;;;;2.03;1.93;;;;;;;;;;5071875;28;20216;-90
2023/03/16 11:21:24;;;;;;;1.33;1.30;;;;;;;;;;5081265;28;20291;-90
2023/03/16 11:23:55;;;;;;;6.67;4.23;;;;;;;;;;5078848;28;20208;-91
2023/03/16 11:26:26;;;;;;;2.07;1.93;;;;;;;;;;5092048;28;20231;-90
2023/03/16 11:29:01;;;;;;;3.03;2.80;;;;;;;;;;5086845;28;20213;-91
2023/03/16 11:31:41;;;;;;;1.67;1.57;;;;;;;;;;5075209;28;20204;-90
2023/03/16 11:34:14;;;;;;;2.23;2.03;;;;;;;;;;5073349;28;20210;-91
2023/03/16 11:36:50;;;;;;;2.93;2.63;;;;;;;;;;5079791;28;20213;-91
2023/03/16 11:39:30;;;;;;;2.30;2.07;;;;;;;;;;5086719;28;20204;-91
2023/03/16 11:42:04;;;;;;;3.47;2.70;;;;;;;;;;5090203;28;20295;-91
2023/03/16 11:44:39;;;;;;;2.47;2.27;;;;;;;;;;5089054;28;20212;-92
2023/03/16 11:47:22;;;;;;;1.97;1.87;;;;;;;;;;5084008;28;20227;-91
2023/03/16 11:49:55;;;;;;;2.00;1.53;;;;;;;;;;5078213;28;20205;-90
2023/03/16 11:52:31;;;;;;;1.37;1.27;;;;;;;;;;5087157;28;20205;-90
2023/03/16 11:55:06;;;;;;;1.67;1.47;;;;;;;;;;5095634;28;20577;-91
2023/03/16 11:57:45;;;;;;;1.80;1.30;;;;;;;;;;5081649;28;20220;-90
2023/03/16 12:00:28;;;;;;;1.57;1.47;;;;;;;;;;5085040;28;20291;-91
2023/03/16 12:03:08;;;;;;;2.10;2.00;;;;;;;;;;5076883;28;20208;-91
2023/03/16 12:05:47;;;;;;;1.67;1.57;;;;;;;;;;5075158;28;20224;-90
2023/03/16 12:08:33;;;;;;;4.23;3.03;;;;;;;;;;5075345;28;20220;-90
2023/03/16 12:11:03;;;;;;;1.50;1.40;;;;;;;;;;5076295;28;20216;-91
2023/03/16 12:13:43;;;;;;;5.07;3.30;;;;;;;;;;5086796;28;20196;-90
2023/03/16 12:16:15;;;;;;;2.53;2.33;;;;;;;;;;5069301;28;20714;-90
2023/03/16 12:18:46;;;;;;;1.80;1.70;;;;;;;;;;5080859;28;20209;-92
2023/03/16 12:21:15;;;;;;;3.70;2.70;;;;;;;;;;5083368;28;20803;-90
2023/03/16 12:23:46;;;;;;;1.67;1.57;;;;;;;;;;5093334;28;20208;-90
2023/03/16 12:26:13;;;;;;;8.33;5.53;;;;;;;;;;5074962;28;20259;-91
2023/03/16 12:28:42;;;;;;;1.63;1.50;;;;;;;;;;5074832;28;20255;-91
2023/03/16 12:31:13;;;;;;;2.70;2.30;;;;;;;;;;5074824;28;20223;-92
2023/03/16 12:33:58;;;;;;;1.73;1.63;;;;;;;;;;5074829;28;20277;-91
2023/03/16 12:37:01;;;;;;;5.47;3.87;;;;;;;;;;5074706;28;20211;-91
2023/03/16 12:39:52;;;;;;;1.73;1.63;;;;;;;;;;5080447;28;20209;-91
2023/03/16 12:42:36;;;;;;;1.67;1.57;;;;;;;;;;5061437;28;20205;-92
2023/03/16 12:45:05;;;;;;;2.40;1.87;;;;;;;;;;5078798;28;20250;-90
2023/03/16 12:47:41;;;;;;;2.20;1.90;;;;;;;;;;5082633;28;20251;-91
2023/03/16 12:50:11;;;;;;;5.23;2.63;;;;;;;;;;5074580;28;20208;-92
2023/03/16 12:52:41;;;;;;;2.43;2.10;;;;;;;;;;5087568;28;20207;-90
2023/03/16 12:55:14;;;;;;;8.60;6.00;;;;;;;;;;5081770;28;20694;-91
2023/03/16 12:57:42;;;;;;;2.00;1.70;;;;;;;;;;5092792;28;20201;-92
2023/03/16 13:00:11;;;;;;;1.70;1.60;;;;;;;;;;5083181;28;20261;-92
2023/03/16 13:02:43;;;;;;;10.60;9.63;;;;;;;;;;5078472;28;20568;-90
2023/03/16 13:05:11;;;;;;;2.90;2.67;;;;;;;;;;5084673;28;20235;-91
2023/03/16 13:07:47;;;;;;;30.13;27.83;;;;;;;;;;5077286;28;20233;-90
2023/03/16 13:10:15;;;;;;;3.07;2.77;;;;;;;;;;5074526;28;20242;-90
2023/03/16 13:12:42;;;;;;;1.60;1.50;;;;;;;;;;5074282;28;20579;-91
2023/03/16 13:15:27;;;;;;;2.50;2.10;;;;;;;;;;5086077;28;20208;-91
2023/03/16 13:18:18;;;;;;;3.83;3.40;;;;;;;;;;5069441;28;20207;-90
2023/03/16 13:20:52;;;;;;;20.97;11.40;;;;;;;;;;5089257;28;20676;-91
2023/03/16 13:23:22;;;;;;;10.97;7.97;;;;;;;;;;5086393;28;20212;-91
2023/03/16 13:26:05;;;;;;;12.13;7.20;;;;;;;;;;5073970;28;20229;-91
2023/03/16 13:28:35;;;;;;;1.37;1.20;;;;;;;;;;5075657;28;20672;-91
2023/03/16 13:31:03;;;;;;;1.50;1.40;;;;;;;;;;5093785;28;20262;-92
2023/03/16 13:33:35;;;;;;;3.57;2.73;;;;;;;;;;5077578;28;20205;-91
2023/03/16 13:36:04;;;;;;;2.23;2.03;;;;;;;;;;5084217;28;20235;-90
2023/03/16 13:38:31;;;;;;;2.50;2.30;;;;;;;;;;5089398;28;20213;-90
2023/03/16 13:41:02;;;;;;;3.87;3.47;;;;;;;;;;5085460;28;20241;-91
2023/03/16 13:43:31;;;;;;;8.07;4.50;;;;;;;;;;5080437;28;20204;-91
2023/03/16 13:45:58;;;;;;;2.20;2.00;;;;;;;;;;5093871;28;20296;-91
2023/03/16 13:48:25;;;;;;;1.47;1.37;;;;;;;;;;5088255;28;20213;-91
2023/03/16 13:50:56;;;;;;;3.20;2.80;;;;;;;;;;5073850;28;20208;-92
2023/03/16 13:53:24;;;;;;;3.70;3.33;;;;;;;;;;5080001;28;20215;-91
2023/03/16 13:55:52;;;;;;;4.50;3.07;;;;;;;;;;5093587;28;20215;-91
2023/03/16 13:58:22;;;;;;;2.03;1.80;;;;;;;;;;5080698;28;20283;-91
2023/03/16 14:00:49;;;;;;;3.77;3.03;;;;;;;;;;5093205;28;20199;-91
2023/03/16 14:03:18;;;;;;;7.43;4.40;;;;;;;;;;5093730;28;20250;-91
2023/03/16 14:05:47;;;;;;;5.77;4.43;;;;;;;;;;5093047;28;20204;-90
2023/03/16 14:08:19;;;;;;;2.47;2.23;;;;;;;;;;5093073;28;20232;-91
2023/03/16 14:10:47;;;;;;;5.53;3.30;;;;;;;;;;5076579;28;20699;-91
2023/03/16 14:13:32;;;;;;;4.63;2.67;;;;;;;;;;5072881;28;20213;-90
2023/03/16 14:16:01;;;;;;;3.73;2.67;;;;;;;;;;5073271;28;20209;-91
2023/03/16 14:18:35;;;;;;;5.10;4.00;;;;;;;;;;5072948;28;20294;-91
2023/03/16 14:21:07;;;;;;;19.03;9.50;;;;;;;;;;5072491;28;20215;-90
2023/03/16 14:23:38;;;;;;;2.80;2.60;;;;;;;;;;5073686;28;20212;-90
2023/03/16 14:26:06;;;;;;;2.17;1.97;;;;;;;;;;5084652;28;20197;-91
2023/03/16 14:28:34;;;;;;;6.07;4.47;;;;;;;;;;5086833;28;20588;-91
2023/03/16 14:31:06;;;;;;;2.97;2.70;;;;;;;;;;5081531;28;20223;-92
2023/03/16 14:33:34;;;;;;;4.03;2.73;;;;;;;;;;5079702;28;20216;-91
2023/03/16 14:36:10;;;;;;;4.30;3.13;;;;;;;;;;5093392;28;20609;-91
2023/03/16 14:38:41;;;;;;;8.70;5.83;;;;;;;;;;5074734;28;20189;-92
2023/03/16 14:41:18;;;;;;;6.37;4.27;;;;;;;;;;5085105;28;20239;-91
2023/03/16 14:43:47;;;;;;;3.23;2.70;;;;;;;;;;5059870;28;20212;-93
2023/03/16 14:46:25;;;;;;;7.67;6.73;;;;;;;;;;5073305;28;20787;-92
2023/03/16 14:48:52;;;;;;;9.73;6.77;;;;;;;;;;5083748;28;20213;-92
2023/03/16 14:51:19;;;;;;;2.70;2.50;;;;;;;;;;5072033;28;20220;-91
2023/03/16 14:53:48;;;;;;;19.67;10.93;;;;;;;;;;5072637;28;20640;-92